createdAt,value
2019-04-06T00:02:17.071Z,83.60
2019-04-06T00:04:45.590Z,83.50
2019-04-06T00:07:14.040Z,83.70
2019-04-06T00:09:42.550Z,83.80
2019-04-06T00:12:11.035Z,83.70
2019-04-06T00:14:39.372Z,83.70
2019-04-06T00:17:07.968Z,84.10
2019-04-06T00:19:36.461Z,84.20
2019-04-06T00:22:05.206Z,84.40
2019-04-06T00:24:33.936Z,84.50
2019-04-06T00:27:02.348Z,84.40
2019-04-06T00:29:30.683Z,84.10
2019-04-06T00:32:00.893Z,84.10
2019-04-06T00:34:29.347Z,83.80
2019-04-06T00:36:57.840Z,83.80
2019-04-06T00:39:26.400Z,84.10
2019-04-06T00:41:54.729Z,84.10
2019-04-06T00:44:23.204Z,84.30
2019-04-06T00:46:51.729Z,84.40
2019-04-06T00:49:20.206Z,84.70
2019-04-06T00:51:48.906Z,85.00
2019-04-06T00:54:17.319Z,85.30
2019-04-06T00:56:45.741Z,85.60
2019-04-06T00:59:14.053Z,86.00
2019-04-06T01:01:42.575Z,86.30
2019-04-06T01:04:11.018Z,86.60
2019-04-06T01:06:39.354Z,87.00
2019-04-06T01:09:09.151Z,87.40
2019-04-06T01:11:37.740Z,87.70
2019-04-06T01:14:06.138Z,87.80
2019-04-06T01:16:34.519Z,87.70
2019-04-06T01:19:03.118Z,87.70
2019-04-06T01:21:31.441Z,87.80
2019-04-06T01:24:00.067Z,87.60
2019-04-06T01:26:28.627Z,87.50
2019-04-06T01:28:57.198Z,87.60
2019-04-06T01:31:25.519Z,87.50
2019-04-06T01:33:53.860Z,87.50
2019-04-06T01:36:22.345Z,87.40
2019-04-06T01:38:50.858Z,87.50
2019-04-06T01:41:19.168Z,87.50
2019-04-06T01:43:48.214Z,87.30
2019-04-06T01:46:16.590Z,87.30
2019-04-06T01:48:45.229Z,87.60
2019-04-06T01:51:13.607Z,88.20
2019-04-06T01:53:42.452Z,87.90
2019-04-06T01:56:18.381Z,87.60
2019-04-06T01:58:40.980Z,88.00
2019-04-06T02:01:29.336Z,88.00
2019-04-06T02:03:58.063Z,87.90
2019-04-06T02:06:26.797Z,87.70
2019-04-06T02:08:55.464Z,87.90
2019-04-06T02:11:24.005Z,88.00
2019-04-06T02:13:52.514Z,88.20
2019-04-06T02:16:20.908Z,88.10
2019-04-06T02:18:49.682Z,88.00
2019-04-06T02:21:18.129Z,88.30
2019-04-06T02:23:46.647Z,88.50
2019-04-06T02:26:14.960Z,88.20
2019-04-06T02:28:43.574Z,88.00
2019-04-06T02:31:13.762Z,87.90
2019-04-06T02:33:59.910Z,88.00
2019-04-06T02:36:46.261Z,87.90
2019-04-06T02:39:22.441Z,88.90
2019-04-06T02:41:52.670Z,88.60
2019-04-06T02:44:21.014Z,88.60
2019-04-06T02:46:49.410Z,88.90
2019-04-06T02:49:17.736Z,89.10
2019-04-06T02:51:46.124Z,88.80
2019-04-06T02:54:14.704Z,89.10
2019-04-06T02:56:46.206Z,88.90
2019-04-06T02:59:13.427Z,88.90
2019-04-06T03:01:41.757Z,89.10
2019-04-06T03:04:10.170Z,89.10
2019-04-06T03:06:38.501Z,89.40
2019-04-06T03:09:06.923Z,89.30
2019-04-06T03:11:35.587Z,89.90
2019-04-06T03:14:04.349Z,89.20
2019-04-06T03:16:32.698Z,89.90
2019-04-06T03:19:01.251Z,89.30
2019-04-06T03:21:29.582Z,89.60
2019-04-06T03:23:58.090Z,89.70
2019-04-06T03:26:26.413Z,89.90
2019-04-06T03:28:54.808Z,90.00
2019-04-06T03:31:26.975Z,90.30
2019-04-06T03:33:53.209Z,90.00
2019-04-06T03:36:21.783Z,90.10
2019-04-06T03:38:50.582Z,90.00
2019-04-06T03:41:19.084Z,90.00
2019-04-06T03:43:47.678Z,89.90
2019-04-06T03:46:16.346Z,90.00
2019-04-06T03:48:44.843Z,90.00
2019-04-06T03:51:13.498Z,89.90
2019-04-06T03:53:41.924Z,90.00
2019-04-06T03:56:10.381Z,90.00
2019-04-06T03:58:38.715Z,89.50
2019-04-06T04:01:07.020Z,89.50
2019-04-06T04:03:35.807Z,89.80
2019-04-06T04:06:04.382Z,89.70
2019-04-06T04:08:32.961Z,89.60
2019-04-06T04:11:01.568Z,89.30
2019-04-06T04:13:30.004Z,89.40
2019-04-06T04:15:58.324Z,89.20
2019-04-06T04:18:26.655Z,89.10
2019-04-06T04:20:55.144Z,89.20
2019-04-06T04:23:23.539Z,89.00
2019-04-06T04:25:52.190Z,88.80
2019-04-06T04:28:20.779Z,89.00
2019-04-06T04:30:49.599Z,88.90
2019-04-06T04:33:18.010Z,89.10
2019-04-06T04:35:46.783Z,88.90
2019-04-06T04:38:15.550Z,89.10
2019-04-06T04:40:44.361Z,88.80
2019-04-06T04:43:12.912Z,88.60
2019-04-06T04:45:41.580Z,88.50
2019-04-06T04:48:10.102Z,88.50
2019-04-06T04:50:38.461Z,88.50
2019-04-06T04:53:06.947Z,88.50
2019-04-06T04:55:35.791Z,88.30
2019-04-06T04:58:04.328Z,88.00
2019-04-06T05:00:33.111Z,88.20
2019-04-06T05:03:01.603Z,88.10
2019-04-06T05:05:30.295Z,88.10
2019-04-06T05:07:59.647Z,88.00
2019-04-06T05:10:28.091Z,88.10
2019-04-06T05:12:56.632Z,88.00
2019-04-06T05:15:33.650Z,88.20
2019-04-06T05:18:01.955Z,88.10
2019-04-06T05:20:30.534Z,88.00
2019-04-06T05:22:58.905Z,88.10
2019-04-06T05:25:27.287Z,88.20
2019-04-06T05:27:55.777Z,88.00
2019-04-06T05:30:24.370Z,87.50
2019-04-06T05:32:52.681Z,87.20
2019-04-06T05:35:21.269Z,87.30
2019-04-06T05:37:49.921Z,87.00
2019-04-06T05:40:18.695Z,86.90
2019-04-06T05:42:47.446Z,87.10
2019-04-06T05:45:16.458Z,88.10
2019-04-06T05:47:45.163Z,87.30
2019-04-06T05:50:13.605Z,86.90
2019-04-06T05:52:42.419Z,86.60
2019-04-06T05:55:14.039Z,86.40
2019-04-06T05:57:42.591Z,86.40
2019-04-06T06:00:11.529Z,86.30
2019-04-06T06:02:41.765Z,85.80
2019-04-06T06:05:11.138Z,85.50
2019-04-06T06:07:39.771Z,85.60
2019-04-06T06:10:08.757Z,85.50
2019-04-06T06:12:37.321Z,85.20
2019-04-06T06:15:07.368Z,84.90
2019-04-06T06:17:36.061Z,84.70
2019-04-06T06:20:08.281Z,85.30
2019-04-06T06:22:36.787Z,85.20
2019-04-06T06:25:07.987Z,84.70
2019-04-06T06:27:36.486Z,84.30
2019-04-06T06:30:08.651Z,85.20
2019-04-06T06:32:36.995Z,83.80
2019-04-06T06:35:06.069Z,83.30
2019-04-06T06:37:34.394Z,83.10
2019-04-06T06:40:03.402Z,83.10
2019-04-06T06:42:31.794Z,83.00
2019-04-06T06:45:00.382Z,82.70
2019-04-06T06:47:28.873Z,82.00
2019-04-06T06:49:57.572Z,81.70
2019-04-06T06:52:25.947Z,81.90
2019-04-06T06:54:54.783Z,81.80
2019-04-06T06:57:23.118Z,81.40
2019-04-06T06:59:53.288Z,80.80
2019-04-06T07:02:29.096Z,80.50
2019-04-06T07:04:57.445Z,80.30
2019-04-06T07:07:28.620Z,80.20
2019-04-06T07:10:05.006Z,80.10
2019-04-06T07:12:27.256Z,80.90
2019-04-06T07:14:55.777Z,80.90
2019-04-06T07:17:24.143Z,81.20
2019-04-06T07:19:52.733Z,81.10
2019-04-06T07:22:21.383Z,81.20
2019-04-06T07:24:49.734Z,81.20
2019-04-06T07:27:18.210Z,80.80
2019-04-06T07:29:46.678Z,80.50
2019-04-06T07:32:15.275Z,80.30
2019-04-06T07:34:44.010Z,79.60
2019-04-06T07:37:12.359Z,79.60
2019-04-06T07:39:41.034Z,79.80
2019-04-06T07:42:09.652Z,80.80
2019-04-06T07:44:38.121Z,80.20
2019-04-06T07:47:06.535Z,80.90
2019-04-06T07:49:34.871Z,80.00
2019-04-06T07:52:03.216Z,79.50
2019-04-06T07:54:31.880Z,79.10
2019-04-06T07:57:00.324Z,78.60
2019-04-06T07:59:28.808Z,78.20
2019-04-06T08:01:57.565Z,77.70
2019-04-06T08:04:26.247Z,77.20
2019-04-06T08:06:54.666Z,76.90
2019-04-06T08:09:23.487Z,76.60
2019-04-06T08:11:51.813Z,76.40
2019-04-06T08:14:20.580Z,75.40
2019-04-06T08:16:48.910Z,75.40
2019-04-06T08:19:17.581Z,75.30
2019-04-06T08:21:46.324Z,75.80
2019-04-06T08:24:15.144Z,75.60
2019-04-06T08:26:46.028Z,75.10
2019-04-06T08:29:13.760Z,74.90
2019-04-06T08:31:42.268Z,74.60
2019-04-06T08:34:13.290Z,73.60
2019-04-06T08:36:40.948Z,73.30
2019-04-06T08:39:09.472Z,72.30
2019-04-06T08:41:38.116Z,72.10
2019-04-06T08:44:06.864Z,71.30
2019-04-06T08:46:35.677Z,71.00
2019-04-06T08:49:04.427Z,70.10
2019-04-06T08:51:32.969Z,69.70
2019-04-06T08:54:01.394Z,70.00
2019-04-06T08:56:30.082Z,69.50
2019-04-06T08:58:58.693Z,68.60
2019-04-06T09:01:27.278Z,66.90
2019-04-06T09:03:55.773Z,68.20
2019-04-06T09:06:24.250Z,68.90
2019-04-06T09:08:52.690Z,68.30
2019-04-06T09:11:21.246Z,69.90
2019-04-06T09:13:50.138Z,69.20
2019-04-06T09:16:18.663Z,68.90
2019-04-06T09:18:49.239Z,68.40
2019-04-06T09:21:17.488Z,69.20
2019-04-06T09:23:45.952Z,69.30
2019-04-06T09:26:14.291Z,69.50
2019-04-06T09:28:42.696Z,69.60
2019-04-06T09:31:11.043Z,68.70
2019-04-06T09:33:40.227Z,68.30
2019-04-06T09:36:08.845Z,68.00
2019-04-06T09:38:37.557Z,67.60
2019-04-06T09:41:06.259Z,66.40
2019-04-06T09:43:35.030Z,66.20
2019-04-06T09:46:14.098Z,66.10
2019-04-06T09:48:59.557Z,65.80
2019-04-06T09:51:32.351Z,66.60
2019-04-06T09:54:18.454Z,65.10
2019-04-06T09:56:49.111Z,65.00
2019-04-06T09:59:38.009Z,63.40
2019-04-06T10:02:14.539Z,63.70
2019-04-06T10:04:47.555Z,61.20
2019-04-06T10:07:33.961Z,61.20
2019-04-06T10:10:12.787Z,60.90
2019-04-06T10:12:58.962Z,62.10
2019-04-06T10:15:47.515Z,61.70
2019-04-06T10:18:17.958Z,61.40
2019-04-06T10:20:48.387Z,60.70
2019-04-06T10:23:18.485Z,60.80
2019-04-06T10:25:51.455Z,60.80
2019-04-06T10:28:24.567Z,60.50
2019-04-06T10:31:11.040Z,60.90
2019-04-06T10:33:41.293Z,58.80
2019-04-06T10:36:17.366Z,58.80
2019-04-06T10:39:03.727Z,57.60
2019-04-06T10:41:50.461Z,57.20
2019-04-06T10:44:29.313Z,57.40
2019-04-06T10:47:08.390Z,56.90
2019-04-06T10:49:41.281Z,55.50
2019-04-06T10:52:20.124Z,55.00
2019-04-06T10:54:59.138Z,54.10
2019-04-06T10:57:41.382Z,52.80
2019-04-06T11:00:29.904Z,55.00
2019-04-06T11:03:00.285Z,54.00
2019-04-06T11:05:30.508Z,53.70
2019-04-06T11:08:03.459Z,52.30
2019-04-06T11:10:33.511Z,50.40
2019-04-06T11:13:03.503Z,51.30
2019-04-06T11:15:39.649Z,51.90
2019-04-06T11:18:26.386Z,51.10
2019-04-06T11:21:14.772Z,51.30
2019-04-06T11:23:50.302Z,52.40
2019-04-06T11:26:36.873Z,51.80
2019-04-06T11:29:12.898Z,53.00
2019-04-06T11:31:42.904Z,52.30
2019-04-06T11:34:12.915Z,51.90
2019-04-06T11:36:46.392Z,52.00
2019-04-06T11:39:16.707Z,50.40
2019-04-06T11:41:55.905Z,49.50
2019-04-06T11:44:28.836Z,48.90
2019-04-06T11:47:02.021Z,49.00
2019-04-06T11:49:32.196Z,49.80
2019-04-06T11:52:04.867Z,50.60
2019-04-06T11:54:44.336Z,49.80
2019-04-06T11:57:17.195Z,49.10
2019-04-06T11:59:56.271Z,47.60
2019-04-06T12:02:28.939Z,44.20
2019-04-06T12:05:04.947Z,42.20
2019-04-06T12:07:51.411Z,39.50
2019-04-06T12:10:22.044Z,39.00
2019-04-06T12:12:58.231Z,38.50
2019-04-06T12:15:28.269Z,38.00
2019-04-06T12:18:04.588Z,37.10
2019-04-06T12:20:46.422Z,36.40
2019-04-06T12:23:22.649Z,35.40
2019-04-06T12:26:01.844Z,35.80
2019-04-06T12:28:31.873Z,33.60
2019-04-06T12:33:59.981Z,35.20
2019-04-06T12:36:32.396Z,33.60
2019-04-06T12:39:08.254Z,31.40
2019-04-06T12:41:44.533Z,32.40
2019-04-06T12:44:26.233Z,32.50
2019-04-06T12:47:06.580Z,33.10
2019-04-06T12:49:36.617Z,33.60
2019-04-06T12:52:06.751Z,33.20
2019-04-06T12:54:53.438Z,33.80
2019-04-06T12:57:32.631Z,34.10
2019-04-06T13:00:05.467Z,32.90
2019-04-06T13:02:44.673Z,33.00
2019-04-06T13:05:17.881Z,34.00
2019-04-06T13:07:47.989Z,33.90
2019-04-06T13:10:20.673Z,33.00
2019-04-06T13:12:59.710Z,30.20
2019-04-06T13:15:32.878Z,29.80
2019-04-06T13:18:19.450Z,27.90
2019-04-06T13:20:52.375Z,29.00
2019-04-06T13:23:34.933Z,29.50
2019-04-06T13:26:08.638Z,29.30
2019-04-06T13:28:51.484Z,29.80
2019-04-06T13:31:24.627Z,30.00
2019-04-06T13:33:57.354Z,29.70
2019-04-06T13:36:27.466Z,30.80
2019-04-06T13:38:57.628Z,33.20
2019-04-06T13:41:37.189Z,36.20
2019-04-06T13:44:07.454Z,38.10
2019-04-06T13:46:37.617Z,37.50
2019-04-06T13:49:13.788Z,36.90
2019-04-06T13:51:52.921Z,36.80
2019-04-06T13:54:38.847Z,38.10
2019-04-06T13:57:14.887Z,39.50
2019-04-06T14:00:01.527Z,37.90
2019-04-06T14:02:31.668Z,38.60
2019-04-06T14:05:08.433Z,37.90
2019-04-06T14:07:47.671Z,38.00
2019-04-06T14:10:23.745Z,37.30
2019-04-06T14:13:10.009Z,36.50
2019-04-06T14:15:40.140Z,37.00
2019-04-06T14:18:16.191Z,37.20
2019-04-06T14:21:04.496Z,37.60
2019-04-06T14:23:34.977Z,38.10
2019-04-06T14:26:17.468Z,37.40
2019-04-06T14:28:56.710Z,36.70
2019-04-06T14:31:30.807Z,37.50
2019-04-06T14:34:09.955Z,38.80
2019-04-06T14:36:56.607Z,38.80
2019-04-06T14:39:26.623Z,38.10
2019-04-06T14:41:59.411Z,37.20
2019-04-06T14:44:45.087Z,37.10
2019-04-06T14:47:18.109Z,38.20
2019-04-06T14:50:06.479Z,38.60
2019-04-06T14:52:55.030Z,38.30
2019-04-06T14:55:34.045Z,38.50
2019-04-06T14:58:04.203Z,39.20
2019-04-06T15:00:50.822Z,39.30
2019-04-06T15:03:21.277Z,38.30
2019-04-06T15:06:03.705Z,37.40
2019-04-06T15:08:33.740Z,37.50
2019-04-06T15:11:18.974Z,37.70
2019-04-06T15:13:55.252Z,37.60
2019-04-06T15:16:34.724Z,37.10
2019-04-06T15:19:11.005Z,38.30
2019-04-06T15:21:44.058Z,38.70
2019-04-06T15:24:20.196Z,38.90
2019-04-06T15:26:59.196Z,38.70
2019-04-06T15:29:29.219Z,38.80
2019-04-06T15:31:59.470Z,39.00
2019-04-06T15:34:32.691Z,38.90
2019-04-06T15:37:03.166Z,38.60
2019-04-06T15:39:39.233Z,38.40
2019-04-06T15:42:26.863Z,38.90
2019-04-06T15:44:57.071Z,39.20
2019-04-06T15:47:45.531Z,39.80
2019-04-06T15:50:15.769Z,40.00
2019-04-06T15:52:51.569Z,39.80
2019-04-06T15:55:21.738Z,40.40
2019-04-06T15:58:06.907Z,40.90
2019-04-06T16:00:37.233Z,42.20
2019-04-06T16:03:07.443Z,42.90
2019-04-06T16:05:37.766Z,43.00
2019-04-06T16:08:16.374Z,42.70
2019-04-06T16:10:49.153Z,42.80
2019-04-06T16:13:35.466Z,42.30
2019-04-06T16:16:14.477Z,43.00
2019-04-06T16:19:02.772Z,42.60
2019-04-06T16:21:44.970Z,43.50
2019-04-06T16:24:15.140Z,44.60
2019-04-06T16:26:48.386Z,44.20
2019-04-06T16:29:24.784Z,44.00
2019-04-06T16:31:57.514Z,43.40
2019-04-06T16:34:30.840Z,43.40
2019-04-06T16:37:06.897Z,44.10
2019-04-06T16:39:40.224Z,45.30
2019-04-06T16:42:19.540Z,46.30
2019-04-06T16:44:49.631Z,47.30
2019-04-06T16:47:22.745Z,48.00
2019-04-06T16:50:09.520Z,48.50
2019-04-06T16:52:58.552Z,49.10
2019-04-06T16:55:44.909Z,49.70
2019-04-06T16:58:18.341Z,50.60
2019-04-06T17:00:48.780Z,51.00
2019-04-06T17:03:19.253Z,51.70
2019-04-06T17:05:55.229Z,52.10
2019-04-06T17:08:28.176Z,52.70
2019-04-06T17:11:01.355Z,52.80
2019-04-06T17:13:49.829Z,53.20
2019-04-06T17:16:28.682Z,53.40
2019-04-06T17:19:04.653Z,53.70
2019-04-06T17:21:41.303Z,54.00
2019-04-06T17:24:11.530Z,55.50
2019-04-06T17:26:48.118Z,54.80
2019-04-06T17:29:34.914Z,55.30
2019-04-06T17:32:05.625Z,55.00
2019-04-06T17:34:36.051Z,55.60
2019-04-06T17:37:12.356Z,56.00
2019-04-06T17:39:45.548Z,56.10
2019-04-06T17:42:15.818Z,55.90
2019-04-06T17:45:02.628Z,56.20
2019-04-06T17:47:36.094Z,56.20
2019-04-06T17:50:19.846Z,56.20
2019-04-06T17:53:06.503Z,56.80
2019-04-06T17:55:37.062Z,57.60
2019-04-06T17:58:08.384Z,58.20
2019-04-06T18:00:41.640Z,58.60
2019-04-06T18:03:17.458Z,59.10
2019-04-06T18:05:50.762Z,59.50
2019-04-06T18:08:30.443Z,59.90
2019-04-06T18:11:09.945Z,60.30
2019-04-06T18:13:50.974Z,61.30
2019-04-06T18:16:21.863Z,60.90
2019-04-06T18:18:51.089Z,61.00
2019-04-06T18:21:20.015Z,61.40
2019-04-06T18:23:48.814Z,61.70
2019-04-06T18:26:19.135Z,62.30
2019-04-06T18:28:48.405Z,62.30
2019-04-06T18:31:19.105Z,62.30
2019-04-06T18:33:48.154Z,62.40
2019-04-06T18:36:18.158Z,62.30
2019-04-06T18:38:54.799Z,62.60
2019-04-06T18:41:23.940Z,62.70
2019-04-06T18:43:52.500Z,62.80
2019-04-06T18:46:20.984Z,63.60
2019-04-06T18:48:49.454Z,62.70
2019-04-06T18:51:18.159Z,63.00
2019-04-06T18:53:47.022Z,63.10
2019-04-06T18:56:15.621Z,63.30
2019-04-06T18:58:44.061Z,63.70
2019-04-06T19:01:12.416Z,64.10
2019-04-06T19:03:41.304Z,64.50
2019-04-06T19:06:09.819Z,64.70
2019-04-06T19:08:39.174Z,64.70
2019-04-06T19:11:08.106Z,64.80
2019-04-06T19:13:36.535Z,65.30
2019-04-06T19:16:05.006Z,65.60
2019-04-06T19:18:33.450Z,66.00
2019-04-06T19:21:01.834Z,66.20
2019-04-06T19:23:30.185Z,66.30
2019-04-06T19:25:59.077Z,66.40
2019-04-06T19:28:27.694Z,66.80
2019-04-06T19:30:56.686Z,67.00
2019-04-06T19:33:25.939Z,67.00
2019-04-06T19:35:55.141Z,67.20
2019-04-06T19:38:23.681Z,67.30
2019-04-06T19:40:52.131Z,67.60
2019-04-06T19:43:20.477Z,67.40
2019-04-06T19:45:49.005Z,66.70
2019-04-06T19:48:17.823Z,66.70
2019-04-06T19:50:46.514Z,66.80
2019-04-06T19:53:15.248Z,66.90
2019-04-06T19:55:43.753Z,67.50
2019-04-06T19:58:12.580Z,67.20
2019-04-06T20:00:41.318Z,67.70
2019-04-06T20:03:10.078Z,67.50
2019-04-06T20:05:39.001Z,67.50
2019-04-06T20:08:08.095Z,67.70
2019-04-06T20:10:36.824Z,67.80
2019-04-06T20:13:07.245Z,67.90
2019-04-06T20:15:36.253Z,68.10
2019-04-06T20:18:04.997Z,68.20
2019-04-06T20:20:34.197Z,68.20
2019-04-06T20:23:02.857Z,68.20
2019-04-06T20:25:31.236Z,68.30
2019-04-06T20:28:00.375Z,68.30
2019-04-06T20:30:28.979Z,68.10
2019-04-06T20:32:57.456Z,68.30
2019-04-06T20:35:26.130Z,68.50
2019-04-06T20:37:54.859Z,68.70
2019-04-06T20:40:23.428Z,69.60
2019-04-06T20:42:51.782Z,69.00
2019-04-06T20:45:20.452Z,68.80
2019-04-06T20:47:48.775Z,68.80
2019-04-06T20:50:17.182Z,69.00
2019-04-06T20:52:46.018Z,69.10
2019-04-06T20:55:14.554Z,68.90
2019-04-06T20:57:45.016Z,68.80
2019-04-06T21:00:14.108Z,68.80
2019-04-06T21:02:42.975Z,69.20
2019-04-06T21:05:12.458Z,69.60
2019-04-06T21:07:41.510Z,70.20
2019-04-06T21:10:11.010Z,70.40
2019-04-06T21:12:39.748Z,70.60
2019-04-06T21:15:17.061Z,70.90
2019-04-06T21:17:38.672Z,71.10
2019-04-06T21:20:07.509Z,71.10
2019-04-06T21:22:35.941Z,71.40
2019-04-06T21:25:05.016Z,71.40
2019-04-06T21:27:34.095Z,71.60
2019-04-06T21:30:03.397Z,71.70
2019-04-06T21:32:32.566Z,71.90
2019-04-06T21:35:03.205Z,72.30
2019-04-06T21:37:31.410Z,72.30
2019-04-06T21:39:59.970Z,71.90
2019-04-06T21:42:28.650Z,71.90
2019-04-06T21:44:57.196Z,71.90
2019-04-06T21:47:25.551Z,71.90
2019-04-06T21:49:54.343Z,71.80
2019-04-06T21:52:22.923Z,71.90
2019-04-06T21:54:51.874Z,71.90
2019-04-06T21:57:20.475Z,72.00
2019-04-06T21:59:49.752Z,72.10
2019-04-06T22:02:18.414Z,72.30
2019-04-06T22:04:46.910Z,72.30
2019-04-06T22:07:15.556Z,72.50
2019-04-06T22:09:44.069Z,72.50
2019-04-06T22:12:12.550Z,72.30
2019-04-06T22:14:40.981Z,71.90
2019-04-06T22:17:10.053Z,71.90
2019-04-06T22:19:39.163Z,72.00
2019-04-06T22:22:07.786Z,71.90
2019-04-06T22:24:36.094Z,71.80
2019-04-06T22:27:05.296Z,71.80
2019-04-06T22:29:34.270Z,71.30
2019-04-06T22:32:02.791Z,71.30
2019-04-06T22:34:39.427Z,71.30
2019-04-06T22:37:01.521Z,71.40
2019-04-06T22:39:29.977Z,70.40
2019-04-06T22:41:58.473Z,70.70
2019-04-06T22:44:27.117Z,71.00
2019-04-06T22:46:55.615Z,71.30
2019-04-06T22:49:24.017Z,71.60
2019-04-06T22:51:52.853Z,71.80
2019-04-06T22:54:21.490Z,71.90
2019-04-06T22:56:49.879Z,72.30
2019-04-06T22:59:18.827Z,72.30
2019-04-06T23:01:47.317Z,72.50
2019-04-06T23:04:20.361Z,72.70
2019-04-06T23:06:50.435Z,72.30
2019-04-06T23:09:18.742Z,72.40
2019-04-06T23:11:47.115Z,72.70
2019-04-06T23:14:15.737Z,72.90
2019-04-06T23:16:44.739Z,73.00
2019-04-06T23:19:13.319Z,73.00
2019-04-06T23:21:41.705Z,73.00
2019-04-06T23:24:10.242Z,73.40
2019-04-06T23:26:39.756Z,73.70
2019-04-06T23:29:08.787Z,74.00
2019-04-06T23:31:37.298Z,73.80
2019-04-06T23:34:06.691Z,73.70
2019-04-06T23:36:35.110Z,73.80
2019-04-06T23:39:05.766Z,74.30
2019-04-06T23:41:34.661Z,73.70
2019-04-06T23:44:03.186Z,73.90
2019-04-06T23:46:31.857Z,74.70
2019-04-06T23:49:02.424Z,75.40
2019-04-06T23:51:30.730Z,75.80
2019-04-06T23:53:59.155Z,75.90
2019-04-06T23:56:27.681Z,75.90
2019-04-06T23:58:56.169Z,75.50
